Francisco Madero, Argentina
Current Conditions -  °F | °C
As of 2:00 AM on Tuesday 27 Jan 2015 (Local Time) from SAOC Reporting Station
Broken Clouds Broken Clouds  
Wind Chill: 21°   Ceiling: 10000
Heat Index: 21°   Visibility: 6mi
Dew Point: 18°   Wind: 0mph
Humidity: 83%   Direction: NA
Pressure: 29.74"   Gusts: NA
Location:  35.86°S, 62.3°W
Report Text: SAOC 270500Z 00000KT 9999 SCT030 BKN10021/18 Q1007
Loading
Personal Weather Stations






























Interactive Weather Map New forecast layout! Learn more

10-Day Weather Forecast

Advertisements
Track Severe Weather on mobile